sensor_id;sensor_type;location;lat;lon;timestamp;P1;durP1;ratioP1;P2;durP2;ratioP2
57341;SDS011;43175;51.002;18.316;2023-06-04T00:00:24;10.90;;;4.30;;
57341;SDS011;43175;51.002;18.316;2023-06-04T00:02:50;11.10;;;4.20;;
57341;SDS011;43175;51.002;18.316;2023-06-04T00:05:16;11.90;;;4.40;;
57341;SDS011;43175;51.002;18.316;2023-06-04T00:07:42;12.60;;;4.60;;
57341;SDS011;43175;51.002;18.316;2023-06-04T00:10:08;10.80;;;4.50;;
57341;SDS011;43175;51.002;18.316;2023-06-04T00:12:34;12.30;;;4.50;;
57341;SDS011;43175;51.002;18.316;2023-06-04T00:15:00;11.70;;;4.50;;
57341;SDS011;43175;51.002;18.316;2023-06-04T00:17:25;12.10;;;4.80;;
57341;SDS011;43175;51.002;18.316;2023-06-04T00:19:51;12.10;;;4.70;;
57341;SDS011;43175;51.002;18.316;2023-06-04T00:22:17;12.60;;;4.70;;
57341;SDS011;43175;51.002;18.316;2023-06-04T00:24:42;13.30;;;5.00;;
57341;SDS011;43175;51.002;18.316;2023-06-04T00:27:08;11.90;;;4.80;;
57341;SDS011;43175;51.002;18.316;2023-06-04T00:29:33;12.70;;;4.90;;
57341;SDS011;43175;51.002;18.316;2023-06-04T00:31:59;12.40;;;4.70;;
57341;SDS011;43175;51.002;18.316;2023-06-04T00:34:25;13.40;;;4.70;;
57341;SDS011;43175;51.002;18.316;2023-06-04T00:36:51;14.40;;;5.50;;
57341;SDS011;43175;51.002;18.316;2023-06-04T00:39:17;12.80;;;4.70;;
57341;SDS011;43175;51.002;18.316;2023-06-04T00:41:42;14.50;;;5.00;;
57341;SDS011;43175;51.002;18.316;2023-06-04T00:44:08;12.40;;;4.80;;
57341;SDS011;43175;51.002;18.316;2023-06-04T00:46:34;13.80;;;5.20;;
57341;SDS011;43175;51.002;18.316;2023-06-04T00:49:01;12.30;;;5.10;;
57341;SDS011;43175;51.002;18.316;2023-06-04T00:51:26;13.60;;;4.90;;
57341;SDS011;43175;51.002;18.316;2023-06-04T00:53:54;12.40;;;4.70;;
57341;SDS011;43175;51.002;18.316;2023-06-04T00:56:20;12.90;;;4.90;;
57341;SDS011;43175;51.002;18.316;2023-06-04T00:58:45;13.50;;;4.90;;
57341;SDS011;43175;51.002;18.316;2023-06-04T01:01:15;11.70;;;4.80;;
57341;SDS011;43175;51.002;18.316;2023-06-04T01:03:49;11.70;;;4.50;;
57341;SDS011;43175;51.002;18.316;2023-06-04T01:06:18;11.00;;;4.60;;
57341;SDS011;43175;51.002;18.316;2023-06-04T01:08:48;12.10;;;4.70;;
57341;SDS011;43175;51.002;18.316;2023-06-04T01:11:16;13.60;;;5.00;;
57341;SDS011;43175;51.002;18.316;2023-06-04T01:13:42;12.10;;;4.40;;
57341;SDS011;43175;51.002;18.316;2023-06-04T01:16:07;12.60;;;4.80;;
57341;SDS011;43175;51.002;18.316;2023-06-04T01:18:36;12.90;;;4.90;;
57341;SDS011;43175;51.002;18.316;2023-06-04T01:21:04;13.30;;;4.40;;
57341;SDS011;43175;51.002;18.316;2023-06-04T01:23:40;12.00;;;4.70;;
57341;SDS011;43175;51.002;18.316;2023-06-04T01:26:12;13.50;;;4.90;;
57341;SDS011;43175;51.002;18.316;2023-06-04T01:28:38;12.20;;;4.70;;
57341;SDS011;43175;51.002;18.316;2023-06-04T01:31:05;13.30;;;4.90;;
57341;SDS011;43175;51.002;18.316;2023-06-04T01:33:33;12.30;;;4.80;;
57341;SDS011;43175;51.002;18.316;2023-06-04T01:36:00;13.70;;;4.70;;
57341;SDS011;43175;51.002;18.316;2023-06-04T01:38:26;11.50;;;4.50;;
57341;SDS011;43175;51.002;18.316;2023-06-04T01:40:52;12.50;;;4.90;;
57341;SDS011;43175;51.002;18.316;2023-06-04T01:43:21;13.20;;;4.90;;
57341;SDS011;43175;51.002;18.316;2023-06-04T01:45:49;13.60;;;4.90;;
57341;SDS011;43175;51.002;18.316;2023-06-04T01:48:15;12.30;;;4.80;;
57341;SDS011;43175;51.002;18.316;2023-06-04T01:50:40;14.30;;;4.70;;
57341;SDS011;43175;51.002;18.316;2023-06-04T01:53:06;12.50;;;5.00;;
57341;SDS011;43175;51.002;18.316;2023-06-04T01:55:32;11.80;;;4.70;;
57341;SDS011;43175;51.002;18.316;2023-06-04T01:57:58;11.80;;;4.80;;
57341;SDS011;43175;51.002;18.316;2023-06-04T02:00:24;13.80;;;4.80;;
57341;SDS011;43175;51.002;18.316;2023-06-04T02:02:50;11.90;;;4.80;;
57341;SDS011;43175;51.002;18.316;2023-06-04T02:05:17;14.00;;;4.70;;
57341;SDS011;43175;51.002;18.316;2023-06-04T02:07:43;12.30;;;4.80;;
57341;SDS011;43175;51.002;18.316;2023-06-04T02:10:11;12.20;;;4.90;;
57341;SDS011;43175;51.002;18.316;2023-06-04T02:12:38;11.30;;;5.00;;
57341;SDS011;43175;51.002;18.316;2023-06-04T02:15:05;13.70;;;5.20;;
57341;SDS011;43175;51.002;18.316;2023-06-04T02:17:32;11.90;;;5.00;;
57341;SDS011;43175;51.002;18.316;2023-06-04T02:19:58;12.50;;;5.10;;
57341;SDS011;43175;51.002;18.316;2023-06-04T02:22:25;11.80;;;4.80;;
57341;SDS011;43175;51.002;18.316;2023-06-04T02:24:51;12.70;;;5.20;;
57341;SDS011;43175;51.002;18.316;2023-06-04T02:27:16;13.70;;;5.10;;
57341;SDS011;43175;51.002;18.316;2023-06-04T02:29:42;12.90;;;4.70;;
57341;SDS011;43175;51.002;18.316;2023-06-04T02:32:08;14.20;;;5.00;;
57341;SDS011;43175;51.002;18.316;2023-06-04T02:34:35;12.90;;;4.80;;
57341;SDS011;43175;51.002;18.316;2023-06-04T02:37:01;12.50;;;4.90;;
57341;SDS011;43175;51.002;18.316;2023-06-04T02:39:27;12.10;;;5.00;;
57341;SDS011;43175;51.002;18.316;2023-06-04T02:41:53;12.70;;;5.00;;
57341;SDS011;43175;51.002;18.316;2023-06-04T02:44:19;11.80;;;5.00;;
57341;SDS011;43175;51.002;18.316;2023-06-04T02:46:45;12.10;;;5.00;;
57341;SDS011;43175;51.002;18.316;2023-06-04T02:49:11;12.90;;;5.40;;
57341;SDS011;43175;51.002;18.316;2023-06-04T02:51:40;12.00;;;5.20;;
57341;SDS011;43175;51.002;18.316;2023-06-04T02:54:06;12.10;;;5.00;;
57341;SDS011;43175;51.002;18.316;2023-06-04T02:56:32;11.60;;;5.10;;
57341;SDS011;43175;51.002;18.316;2023-06-04T02:58:58;15.50;;;5.90;;
57341;SDS011;43175;51.002;18.316;2023-06-04T03:01:24;11.70;;;4.90;;
57341;SDS011;43175;51.002;18.316;2023-06-04T03:03:51;13.40;;;5.40;;
57341;SDS011;43175;51.002;18.316;2023-06-04T03:06:18;13.90;;;5.40;;
57341;SDS011;43175;51.002;18.316;2023-06-04T03:08:48;14.60;;;5.40;;
57341;SDS011;43175;51.002;18.316;2023-06-04T03:11:15;15.20;;;5.10;;
57341;SDS011;43175;51.002;18.316;2023-06-04T03:13:42;12.30;;;5.30;;
57341;SDS011;43175;51.002;18.316;2023-06-04T03:16:08;13.70;;;5.60;;
57341;SDS011;43175;51.002;18.316;2023-06-04T03:18:39;13.20;;;5.70;;
57341;SDS011;43175;51.002;18.316;2023-06-04T03:21:05;13.10;;;5.50;;
57341;SDS011;43175;51.002;18.316;2023-06-04T03:23:32;13.40;;;5.60;;
57341;SDS011;43175;51.002;18.316;2023-06-04T03:25:58;14.30;;;5.40;;
57341;SDS011;43175;51.002;18.316;2023-06-04T03:28:24;14.00;;;5.70;;
57341;SDS011;43175;51.002;18.316;2023-06-04T03:30:49;13.50;;;5.70;;
57341;SDS011;43175;51.002;18.316;2023-06-04T03:33:15;13.30;;;5.60;;
57341;SDS011;43175;51.002;18.316;2023-06-04T03:35:41;13.60;;;5.50;;
57341;SDS011;43175;51.002;18.316;2023-06-04T03:38:07;14.00;;;5.90;;
57341;SDS011;43175;51.002;18.316;2023-06-04T03:40:33;12.90;;;5.00;;
57341;SDS011;43175;51.002;18.316;2023-06-04T03:42:58;13.20;;;5.40;;
57341;SDS011;43175;51.002;18.316;2023-06-04T03:45:26;13.30;;;5.60;;
57341;SDS011;43175;51.002;18.316;2023-06-04T03:47:52;12.70;;;5.50;;
57341;SDS011;43175;51.002;18.316;2023-06-04T03:50:18;12.40;;;5.40;;
57341;SDS011;43175;51.002;18.316;2023-06-04T03:52:44;12.10;;;5.30;;
57341;SDS011;43175;51.002;18.316;2023-06-04T03:55:10;12.90;;;5.50;;
57341;SDS011;43175;51.002;18.316;2023-06-04T03:57:36;11.50;;;5.00;;
57341;SDS011;43175;51.002;18.316;2023-06-04T04:00:04;14.50;;;5.10;;
57341;SDS011;43175;51.002;18.316;2023-06-04T04:02:32;13.70;;;5.10;;
57341;SDS011;43175;51.002;18.316;2023-06-04T04:04:57;14.10;;;4.90;;
57341;SDS011;43175;51.002;18.316;2023-06-04T04:07:23;13.00;;;5.10;;
57341;SDS011;43175;51.002;18.316;2023-06-04T04:09:50;12.50;;;5.20;;
57341;SDS011;43175;51.002;18.316;2023-06-04T04:12:16;12.90;;;5.10;;
57341;SDS011;43175;51.002;18.316;2023-06-04T04:14:42;14.80;;;5.10;;
57341;SDS011;43175;51.002;18.316;2023-06-04T04:17:08;12.10;;;4.80;;
57341;SDS011;43175;51.002;18.316;2023-06-04T04:19:34;13.70;;;4.70;;
57341;SDS011;43175;51.002;18.316;2023-06-04T04:21:59;12.50;;;4.60;;
57341;SDS011;43175;51.002;18.316;2023-06-04T04:24:25;13.30;;;4.40;;
57341;SDS011;43175;51.002;18.316;2023-06-04T04:26:52;12.90;;;4.50;;
57341;SDS011;43175;51.002;18.316;2023-06-04T04:29:21;12.60;;;4.40;;
57341;SDS011;43175;51.002;18.316;2023-06-04T04:31:53;11.60;;;4.40;;
57341;SDS011;43175;51.002;18.316;2023-06-04T04:34:21;12.30;;;4.50;;
57341;SDS011;43175;51.002;18.316;2023-06-04T04:36:48;13.00;;;4.40;;
57341;SDS011;43175;51.002;18.316;2023-06-04T04:39:26;11.00;;;4.50;;
57341;SDS011;43175;51.002;18.316;2023-06-04T04:42:00;13.00;;;4.50;;
57341;SDS011;43175;51.002;18.316;2023-06-04T04:44:26;14.40;;;4.90;;
57341;SDS011;43175;51.002;18.316;2023-06-04T04:46:51;13.10;;;4.50;;
57341;SDS011;43175;51.002;18.316;2023-06-04T04:49:17;12.60;;;4.50;;
57341;SDS011;43175;51.002;18.316;2023-06-04T04:51:42;11.90;;;4.20;;
57341;SDS011;43175;51.002;18.316;2023-06-04T04:54:08;10.50;;;4.20;;
57341;SDS011;43175;51.002;18.316;2023-06-04T04:56:34;14.00;;;4.50;;
57341;SDS011;43175;51.002;18.316;2023-06-04T04:59:01;12.30;;;4.60;;
57341;SDS011;43175;51.002;18.316;2023-06-04T05:01:26;31.50;;;18.40;;
57341;SDS011;43175;51.002;18.316;2023-06-04T05:03:52;17.20;;;10.30;;
57341;SDS011;43175;51.002;18.316;2023-06-04T05:06:18;36.10;;;27.20;;
57341;SDS011;43175;51.002;18.316;2023-06-04T05:08:43;41.90;;;28.10;;
57341;SDS011;43175;51.002;18.316;2023-06-04T05:11:09;20.90;;;13.20;;
57341;SDS011;43175;51.002;18.316;2023-06-04T05:13:35;15.00;;;7.60;;
57341;SDS011;43175;51.002;18.316;2023-06-04T05:16:01;14.10;;;5.40;;
57341;SDS011;43175;51.002;18.316;2023-06-04T05:18:36;13.30;;;5.30;;
57341;SDS011;43175;51.002;18.316;2023-06-04T05:21:06;15.50;;;6.00;;
57341;SDS011;43175;51.002;18.316;2023-06-04T05:23:32;20.70;;;11.30;;
57341;SDS011;43175;51.002;18.316;2023-06-04T05:26:02;17.10;;;8.40;;
57341;SDS011;43175;51.002;18.316;2023-06-04T05:28:29;13.10;;;6.00;;
57341;SDS011;43175;51.002;18.316;2023-06-04T05:30:58;16.00;;;7.90;;
57341;SDS011;43175;51.002;18.316;2023-06-04T05:33:26;17.70;;;7.00;;
57341;SDS011;43175;51.002;18.316;2023-06-04T05:35:53;12.70;;;5.10;;
57341;SDS011;43175;51.002;18.316;2023-06-04T05:38:23;16.20;;;8.00;;
57341;SDS011;43175;51.002;18.316;2023-06-04T05:40:55;14.90;;;6.40;;
57341;SDS011;43175;51.002;18.316;2023-06-04T05:43:21;27.00;;;14.00;;
57341;SDS011;43175;51.002;18.316;2023-06-04T05:45:47;19.20;;;8.80;;
57341;SDS011;43175;51.002;18.316;2023-06-04T05:48:13;13.90;;;4.90;;
57341;SDS011;43175;51.002;18.316;2023-06-04T05:50:39;15.40;;;5.80;;
57341;SDS011;43175;51.002;18.316;2023-06-04T05:53:04;14.70;;;5.40;;
57341;SDS011;43175;51.002;18.316;2023-06-04T05:55:30;12.40;;;5.00;;
57341;SDS011;43175;51.002;18.316;2023-06-04T05:57:55;15.70;;;5.10;;
57341;SDS011;43175;51.002;18.316;2023-06-04T06:00:21;12.80;;;4.50;;
57341;SDS011;43175;51.002;18.316;2023-06-04T06:02:51;11.20;;;4.30;;
57341;SDS011;43175;51.002;18.316;2023-06-04T06:05:18;12.10;;;4.70;;
57341;SDS011;43175;51.002;18.316;2023-06-04T06:07:45;11.70;;;4.40;;
57341;SDS011;43175;51.002;18.316;2023-06-04T06:10:11;11.10;;;4.10;;
57341;SDS011;43175;51.002;18.316;2023-06-04T06:12:37;11.20;;;4.40;;
57341;SDS011;43175;51.002;18.316;2023-06-04T06:15:03;11.30;;;4.40;;
57341;SDS011;43175;51.002;18.316;2023-06-04T06:17:29;12.50;;;4.30;;
57341;SDS011;43175;51.002;18.316;2023-06-04T06:19:55;11.90;;;4.40;;
57341;SDS011;43175;51.002;18.316;2023-06-04T06:22:21;11.80;;;4.50;;
57341;SDS011;43175;51.002;18.316;2023-06-04T06:24:47;12.00;;;4.40;;
57341;SDS011;43175;51.002;18.316;2023-06-04T06:27:16;12.50;;;4.30;;
57341;SDS011;43175;51.002;18.316;2023-06-04T06:29:42;11.50;;;3.90;;
57341;SDS011;43175;51.002;18.316;2023-06-04T06:32:09;11.90;;;4.40;;
57341;SDS011;43175;51.002;18.316;2023-06-04T06:34:35;10.80;;;4.00;;
57341;SDS011;43175;51.002;18.316;2023-06-04T06:37:02;11.00;;;3.80;;
57341;SDS011;43175;51.002;18.316;2023-06-04T06:39:28;11.30;;;4.00;;
57341;SDS011;43175;51.002;18.316;2023-06-04T06:41:53;12.30;;;4.00;;
57341;SDS011;43175;51.002;18.316;2023-06-04T06:44:19;11.30;;;3.80;;
57341;SDS011;43175;51.002;18.316;2023-06-04T06:46:45;11.00;;;3.60;;
57341;SDS011;43175;51.002;18.316;2023-06-04T06:49:10;11.60;;;3.50;;
57341;SDS011;43175;51.002;18.316;2023-06-04T06:51:36;9.20;;;3.10;;
57341;SDS011;43175;51.002;18.316;2023-06-04T06:54:01;9.70;;;3.30;;
57341;SDS011;43175;51.002;18.316;2023-06-04T06:56:27;10.80;;;3.60;;
57341;SDS011;43175;51.002;18.316;2023-06-04T06:58:52;10.10;;;3.50;;
57341;SDS011;43175;51.002;18.316;2023-06-04T07:01:18;11.20;;;4.20;;
57341;SDS011;43175;51.002;18.316;2023-06-04T07:03:43;12.10;;;3.90;;
57341;SDS011;43175;51.002;18.316;2023-06-04T07:06:10;10.20;;;3.70;;
57341;SDS011;43175;51.002;18.316;2023-06-04T07:08:35;9.50;;;3.50;;
57341;SDS011;43175;51.002;18.316;2023-06-04T07:11:01;10.00;;;3.00;;
57341;SDS011;43175;51.002;18.316;2023-06-04T07:13:27;9.30;;;3.10;;
57341;SDS011;43175;51.002;18.316;2023-06-04T07:15:53;8.90;;;3.10;;
57341;SDS011;43175;51.002;18.316;2023-06-04T07:18:19;11.10;;;3.30;;
57341;SDS011;43175;51.002;18.316;2023-06-04T07:20:45;9.50;;;3.00;;
57341;SDS011;43175;51.002;18.316;2023-06-04T07:23:10;11.00;;;3.10;;
57341;SDS011;43175;51.002;18.316;2023-06-04T07:25:36;10.10;;;3.00;;
57341;SDS011;43175;51.002;18.316;2023-06-04T07:28:02;10.00;;;3.20;;
57341;SDS011;43175;51.002;18.316;2023-06-04T07:30:30;9.70;;;3.20;;
57341;SDS011;43175;51.002;18.316;2023-06-04T07:32:57;9.80;;;3.10;;
57341;SDS011;43175;51.002;18.316;2023-06-04T07:35:23;8.50;;;3.00;;
57341;SDS011;43175;51.002;18.316;2023-06-04T07:37:49;8.60;;;2.80;;
57341;SDS011;43175;51.002;18.316;2023-06-04T07:40:16;9.60;;;3.00;;
57341;SDS011;43175;51.002;18.316;2023-06-04T07:42:42;11.90;;;2.90;;
57341;SDS011;43175;51.002;18.316;2023-06-04T07:45:10;9.10;;;3.20;;
57341;SDS011;43175;51.002;18.316;2023-06-04T07:47:36;8.90;;;2.60;;
57341;SDS011;43175;51.002;18.316;2023-06-04T07:50:02;8.10;;;2.50;;
57341;SDS011;43175;51.002;18.316;2023-06-04T07:52:29;9.80;;;2.40;;
57341;SDS011;43175;51.002;18.316;2023-06-04T07:54:55;8.50;;;2.60;;
57341;SDS011;43175;51.002;18.316;2023-06-04T07:57:22;7.00;;;2.30;;
57341;SDS011;43175;51.002;18.316;2023-06-04T07:59:47;8.70;;;2.40;;
57341;SDS011;43175;51.002;18.316;2023-06-04T08:02:14;12.70;;;2.40;;
57341;SDS011;43175;51.002;18.316;2023-06-04T08:04:40;6.80;;;2.10;;
57341;SDS011;43175;51.002;18.316;2023-06-04T08:07:06;7.90;;;2.20;;
57341;SDS011;43175;51.002;18.316;2023-06-04T08:09:31;9.00;;;2.50;;
57341;SDS011;43175;51.002;18.316;2023-06-04T08:11:56;8.00;;;2.30;;
57341;SDS011;43175;51.002;18.316;2023-06-04T08:14:22;8.10;;;2.40;;
57341;SDS011;43175;51.002;18.316;2023-06-04T08:16:48;7.80;;;2.30;;
57341;SDS011;43175;51.002;18.316;2023-06-04T08:19:14;8.70;;;2.30;;
57341;SDS011;43175;51.002;18.316;2023-06-04T08:21:41;9.50;;;2.50;;
57341;SDS011;43175;51.002;18.316;2023-06-04T08:24:08;9.20;;;2.20;;
57341;SDS011;43175;51.002;18.316;2023-06-04T08:26:34;6.80;;;2.20;;
57341;SDS011;43175;51.002;18.316;2023-06-04T08:29:01;8.70;;;2.60;;
57341;SDS011;43175;51.002;18.316;2023-06-04T08:31:27;9.30;;;2.70;;
57341;SDS011;43175;51.002;18.316;2023-06-04T08:33:53;8.60;;;2.10;;
57341;SDS011;43175;51.002;18.316;2023-06-04T08:36:18;9.80;;;2.30;;
57341;SDS011;43175;51.002;18.316;2023-06-04T08:38:43;9.10;;;2.40;;
57341;SDS011;43175;51.002;18.316;2023-06-04T08:41:15;7.50;;;2.40;;
57341;SDS011;43175;51.002;18.316;2023-06-04T08:43:45;8.60;;;2.50;;
57341;SDS011;43175;51.002;18.316;2023-06-04T08:46:13;9.80;;;2.50;;
57341;SDS011;43175;51.002;18.316;2023-06-04T08:48:40;11.50;;;2.70;;
57341;SDS011;43175;51.002;18.316;2023-06-04T08:51:06;8.30;;;2.60;;
57341;SDS011;43175;51.002;18.316;2023-06-04T08:53:34;9.70;;;2.50;;
57341;SDS011;43175;51.002;18.316;2023-06-04T08:56:00;9.10;;;2.50;;
57341;SDS011;43175;51.002;18.316;2023-06-04T08:58:26;8.90;;;2.60;;
57341;SDS011;43175;51.002;18.316;2023-06-04T09:00:55;9.90;;;2.40;;
57341;SDS011;43175;51.002;18.316;2023-06-04T09:03:21;10.20;;;2.30;;
57341;SDS011;43175;51.002;18.316;2023-06-04T09:05:49;9.10;;;2.30;;
57341;SDS011;43175;51.002;18.316;2023-06-04T09:08:16;11.10;;;2.40;;
57341;SDS011;43175;51.002;18.316;2023-06-04T09:10:43;8.40;;;2.60;;
57341;SDS011;43175;51.002;18.316;2023-06-04T09:13:10;9.00;;;2.50;;
57341;SDS011;43175;51.002;18.316;2023-06-04T09:15:36;6.80;;;2.20;;
57341;SDS011;43175;51.002;18.316;2023-06-04T09:18:02;8.40;;;2.40;;
57341;SDS011;43175;51.002;18.316;2023-06-04T09:20:27;8.80;;;2.50;;
57341;SDS011;43175;51.002;18.316;2023-06-04T09:22:53;11.60;;;2.60;;
57341;SDS011;43175;51.002;18.316;2023-06-04T09:25:25;7.60;;;2.30;;
57341;SDS011;43175;51.002;18.316;2023-06-04T09:27:52;8.50;;;2.10;;
57341;SDS011;43175;51.002;18.316;2023-06-04T09:30:20;7.90;;;2.30;;
57341;SDS011;43175;51.002;18.316;2023-06-04T09:32:47;7.20;;;2.20;;
57341;SDS011;43175;51.002;18.316;2023-06-04T09:35:13;10.40;;;2.40;;
57341;SDS011;43175;51.002;18.316;2023-06-04T09:37:40;7.20;;;2.30;;
57341;SDS011;43175;51.002;18.316;2023-06-04T09:40:07;9.70;;;2.50;;
57341;SDS011;43175;51.002;18.316;2023-06-04T09:42:43;8.60;;;2.60;;
57341;SDS011;43175;51.002;18.316;2023-06-04T09:45:09;9.80;;;2.50;;
57341;SDS011;43175;51.002;18.316;2023-06-04T09:47:41;10.00;;;2.30;;
57341;SDS011;43175;51.002;18.316;2023-06-04T09:50:08;8.60;;;2.20;;
57341;SDS011;43175;51.002;18.316;2023-06-04T09:52:34;9.10;;;2.30;;
57341;SDS011;43175;51.002;18.316;2023-06-04T09:55:00;8.60;;;2.20;;
57341;SDS011;43175;51.002;18.316;2023-06-04T09:57:26;6.50;;;2.10;;
57341;SDS011;43175;51.002;18.316;2023-06-04T09:59:54;7.70;;;2.20;;
57341;SDS011;43175;51.002;18.316;2023-06-04T10:02:21;7.20;;;2.20;;
57341;SDS011;43175;51.002;18.316;2023-06-04T10:04:56;7.50;;;2.30;;
57341;SDS011;43175;51.002;18.316;2023-06-04T10:07:24;8.00;;;2.30;;
57341;SDS011;43175;51.002;18.316;2023-06-04T10:09:50;8.30;;;2.50;;
57341;SDS011;43175;51.002;18.316;2023-06-04T10:12:17;8.60;;;2.40;;
57341;SDS011;43175;51.002;18.316;2023-06-04T10:14:50;7.20;;;2.30;;
57341;SDS011;43175;51.002;18.316;2023-06-04T10:17:17;10.00;;;2.60;;
57341;SDS011;43175;51.002;18.316;2023-06-04T10:19:49;8.30;;;2.30;;
57341;SDS011;43175;51.002;18.316;2023-06-04T10:22:17;9.30;;;2.80;;
57341;SDS011;43175;51.002;18.316;2023-06-04T10:24:43;9.10;;;2.40;;
57341;SDS011;43175;51.002;18.316;2023-06-04T10:27:08;9.10;;;2.40;;
57341;SDS011;43175;51.002;18.316;2023-06-04T10:29:38;9.00;;;2.40;;
57341;SDS011;43175;51.002;18.316;2023-06-04T10:32:04;8.70;;;2.50;;
57341;SDS011;43175;51.002;18.316;2023-06-04T10:34:30;10.30;;;2.50;;
57341;SDS011;43175;51.002;18.316;2023-06-04T10:36:57;8.40;;;2.30;;
57341;SDS011;43175;51.002;18.316;2023-06-04T10:39:26;9.60;;;2.40;;
57341;SDS011;43175;51.002;18.316;2023-06-04T10:42:06;9.10;;;2.60;;
57341;SDS011;43175;51.002;18.316;2023-06-04T10:44:32;9.50;;;2.30;;
57341;SDS011;43175;51.002;18.316;2023-06-04T10:47:26;8.50;;;2.30;;
57341;SDS011;43175;51.002;18.316;2023-06-04T10:49:53;12.30;;;2.50;;
57341;SDS011;43175;51.002;18.316;2023-06-04T10:52:20;7.50;;;2.30;;
57341;SDS011;43175;51.002;18.316;2023-06-04T10:54:46;8.30;;;2.10;;
57341;SDS011;43175;51.002;18.316;2023-06-04T10:59:53;8.90;;;2.60;;
57341;SDS011;43175;51.002;18.316;2023-06-04T11:02:20;8.60;;;2.50;;
57341;SDS011;43175;51.002;18.316;2023-06-04T11:04:45;10.70;;;2.40;;
57341;SDS011;43175;51.002;18.316;2023-06-04T11:07:11;12.20;;;3.80;;
57341;SDS011;43175;51.002;18.316;2023-06-04T11:09:38;13.70;;;5.30;;
57341;SDS011;43175;51.002;18.316;2023-06-04T11:12:12;8.80;;;2.40;;
57341;SDS011;43175;51.002;18.316;2023-06-04T11:14:38;9.40;;;2.60;;
57341;SDS011;43175;51.002;18.316;2023-06-04T11:17:10;10.00;;;3.00;;
57341;SDS011;43175;51.002;18.316;2023-06-04T11:19:36;10.00;;;3.70;;
57341;SDS011;43175;51.002;18.316;2023-06-04T11:22:02;11.30;;;3.20;;
57341;SDS011;43175;51.002;18.316;2023-06-04T11:24:29;10.90;;;2.60;;
57341;SDS011;43175;51.002;18.316;2023-06-04T11:26:56;9.30;;;2.60;;
57341;SDS011;43175;51.002;18.316;2023-06-04T11:29:24;9.00;;;2.50;;
57341;SDS011;43175;51.002;18.316;2023-06-04T11:31:50;7.20;;;2.10;;
57341;SDS011;43175;51.002;18.316;2023-06-04T11:34:22;8.90;;;2.30;;
57341;SDS011;43175;51.002;18.316;2023-06-04T11:36:48;8.00;;;2.40;;
57341;SDS011;43175;51.002;18.316;2023-06-04T11:39:15;8.00;;;2.30;;
57341;SDS011;43175;51.002;18.316;2023-06-04T11:41:40;7.70;;;2.20;;
57341;SDS011;43175;51.002;18.316;2023-06-04T11:44:06;7.50;;;2.30;;
57341;SDS011;43175;51.002;18.316;2023-06-04T11:46:32;7.70;;;2.20;;
57341;SDS011;43175;51.002;18.316;2023-06-04T11:48:59;9.30;;;2.30;;
57341;SDS011;43175;51.002;18.316;2023-06-04T11:51:25;7.90;;;2.30;;
57341;SDS011;43175;51.002;18.316;2023-06-04T11:53:51;9.90;;;3.20;;
57341;SDS011;43175;51.002;18.316;2023-06-04T11:56:17;10.10;;;3.90;;
57341;SDS011;43175;51.002;18.316;2023-06-04T11:58:43;10.60;;;4.10;;
57341;SDS011;43175;51.002;18.316;2023-06-04T12:01:11;7.70;;;2.20;;
57341;SDS011;43175;51.002;18.316;2023-06-04T12:03:39;9.80;;;2.40;;
57341;SDS011;43175;51.002;18.316;2023-06-04T12:06:12;8.20;;;2.20;;
57341;SDS011;43175;51.002;18.316;2023-06-04T12:09:19;8.40;;;2.20;;
57341;SDS011;43175;51.002;18.316;2023-06-04T12:11:32;9.00;;;2.20;;
57341;SDS011;43175;51.002;18.316;2023-06-04T12:14:00;7.40;;;2.40;;
57341;SDS011;43175;51.002;18.316;2023-06-04T12:16:29;7.60;;;2.30;;
57341;SDS011;43175;51.002;18.316;2023-06-04T12:19:07;8.10;;;2.20;;
57341;SDS011;43175;51.002;18.316;2023-06-04T12:21:34;6.90;;;2.20;;
57341;SDS011;43175;51.002;18.316;2023-06-04T12:24:09;8.60;;;2.30;;
57341;SDS011;43175;51.002;18.316;2023-06-04T12:26:36;9.40;;;2.30;;
57341;SDS011;43175;51.002;18.316;2023-06-04T12:29:12;8.80;;;2.40;;
57341;SDS011;43175;51.002;18.316;2023-06-04T12:31:39;9.10;;;2.40;;
57341;SDS011;43175;51.002;18.316;2023-06-04T12:34:05;7.90;;;2.20;;
57341;SDS011;43175;51.002;18.316;2023-06-04T12:36:31;7.10;;;2.10;;
57341;SDS011;43175;51.002;18.316;2023-06-04T12:38:59;7.90;;;2.40;;
57341;SDS011;43175;51.002;18.316;2023-06-04T12:41:26;7.60;;;2.20;;
57341;SDS011;43175;51.002;18.316;2023-06-04T12:43:52;8.40;;;2.20;;
57341;SDS011;43175;51.002;18.316;2023-06-04T12:46:18;6.90;;;2.30;;
57341;SDS011;43175;51.002;18.316;2023-06-04T12:48:43;8.00;;;2.30;;
57341;SDS011;43175;51.002;18.316;2023-06-04T12:51:09;8.00;;;2.30;;
57341;SDS011;43175;51.002;18.316;2023-06-04T12:53:38;9.40;;;2.40;;
57341;SDS011;43175;51.002;18.316;2023-06-04T12:56:05;9.40;;;2.40;;
57341;SDS011;43175;51.002;18.316;2023-06-04T12:58:30;9.60;;;2.50;;
57341;SDS011;43175;51.002;18.316;2023-06-04T13:00:56;8.30;;;2.40;;
57341;SDS011;43175;51.002;18.316;2023-06-04T13:03:21;8.80;;;2.60;;
57341;SDS011;43175;51.002;18.316;2023-06-04T13:05:47;7.70;;;2.30;;
57341;SDS011;43175;51.002;18.316;2023-06-04T13:08:12;8.00;;;2.20;;
57341;SDS011;43175;51.002;18.316;2023-06-04T13:10:38;7.60;;;2.40;;
57341;SDS011;43175;51.002;18.316;2023-06-04T13:13:03;8.90;;;2.40;;
57341;SDS011;43175;51.002;18.316;2023-06-04T13:15:29;8.30;;;2.30;;
57341;SDS011;43175;51.002;18.316;2023-06-04T13:17:55;8.80;;;2.30;;
57341;SDS011;43175;51.002;18.316;2023-06-04T13:20:20;9.00;;;2.80;;
57341;SDS011;43175;51.002;18.316;2023-06-04T13:22:46;8.50;;;2.30;;
57341;SDS011;43175;51.002;18.316;2023-06-04T13:25:12;8.20;;;2.50;;
57341;SDS011;43175;51.002;18.316;2023-06-04T13:27:38;7.20;;;2.20;;
57341;SDS011;43175;51.002;18.316;2023-06-04T13:30:04;7.60;;;2.40;;
57341;SDS011;43175;51.002;18.316;2023-06-04T13:32:31;7.70;;;2.40;;
57341;SDS011;43175;51.002;18.316;2023-06-04T13:34:56;8.60;;;2.30;;
57341;SDS011;43175;51.002;18.316;2023-06-04T13:37:22;8.70;;;2.40;;
57341;SDS011;43175;51.002;18.316;2023-06-04T13:39:48;6.50;;;2.30;;
57341;SDS011;43175;51.002;18.316;2023-06-04T13:42:13;9.10;;;2.40;;
57341;SDS011;43175;51.002;18.316;2023-06-04T13:44:39;7.90;;;2.30;;
57341;SDS011;43175;51.002;18.316;2023-06-04T13:47:04;8.70;;;2.40;;
57341;SDS011;43175;51.002;18.316;2023-06-04T13:49:33;8.20;;;2.40;;
57341;SDS011;43175;51.002;18.316;2023-06-04T13:52:00;7.60;;;2.40;;
57341;SDS011;43175;51.002;18.316;2023-06-04T13:54:26;8.70;;;2.60;;
57341;SDS011;43175;51.002;18.316;2023-06-04T13:56:52;8.10;;;2.60;;
57341;SDS011;43175;51.002;18.316;2023-06-04T13:59:17;10.00;;;2.60;;
57341;SDS011;43175;51.002;18.316;2023-06-04T14:01:43;9.20;;;2.60;;
57341;SDS011;43175;51.002;18.316;2023-06-04T14:04:08;8.30;;;2.50;;
57341;SDS011;43175;51.002;18.316;2023-06-04T14:06:36;10.00;;;2.20;;
57341;SDS011;43175;51.002;18.316;2023-06-04T14:09:03;7.90;;;2.40;;
57341;SDS011;43175;51.002;18.316;2023-06-04T14:11:30;8.00;;;2.30;;
57341;SDS011;43175;51.002;18.316;2023-06-04T14:13:57;7.80;;;2.30;;
57341;SDS011;43175;51.002;18.316;2023-06-04T14:16:23;9.90;;;2.40;;
57341;SDS011;43175;51.002;18.316;2023-06-04T14:18:48;9.10;;;2.60;;
57341;SDS011;43175;51.002;18.316;2023-06-04T14:21:14;8.30;;;2.50;;
57341;SDS011;43175;51.002;18.316;2023-06-04T14:23:39;7.30;;;2.20;;
57341;SDS011;43175;51.002;18.316;2023-06-04T14:26:05;10.90;;;2.40;;